^^
Grace C. Lehan Memorial Weather Station Historical Data
Daily Summary for September 25, 2022 Units:  English    Metric   Both
Daily Weekly Monthly Yearly
  High: Low: Average:
Temperature: 70.5 °F 48.5 °F 57.7 °F
Dew Point: 62.3 °F 46.6 °F 52.9 °F
Humidity: 95% 71% 85%
Wind Speed: 1.5mph 0mph 0.1mph
Wind Gust: 11mph - -
Wind- - SSW
Pressure: 29.84 in 29.58 in -
Precipitation: 0.00 in    
 
 
Tabular Data for September 25, 2022
Time Temperature Dew Point Pressure Wind Wind Speed Wind Gust Humidity Rainfall Rate (Hourly) solar
00:04 52 °F 48.3 °F 29.84 in Calm     87% 0.00 in 0 W/m2
00:09 51.9 °F 48.1 °F 29.84 in Calm     87% 0.00 in 0 W/m2
00:14 51.7 °F 48.3 °F 29.84 in Calm     87.9% 0.00 in 0 W/m2
00:19 51.6 °F 48.2 °F 29.84 in Calm     88% 0.00 in 0 W/m2
00:24 51.5 °F 48 °F 29.84 in Calm     88% 0.00 in 0 W/m2
00:29 51.3 °F 47.9 °F 29.84 in Calm     88% 0.00 in 0 W/m2
00:34 51.2 °F 47.9 °F 29.84 in Calm     88.5% 0.00 in 0 W/m2
00:39 51.1 °F 48 °F 29.84 in Calm     89% 0.00 in 0 W/m2
00:44 51.1 °F 48 °F 29.84 in Calm     89% 0.00 in 0 W/m2
00:49 51 °F 48.1 °F 29.84 in Calm     89.6% 0.00 in 0 W/m2
00:54 51 °F 48.2 °F 29.84 in Calm     90% 0.00 in 0 W/m2
00:59 51 °F 48.2 °F 29.84 in Calm     90% 0.00 in 0 W/m2
01:04 50.9 °F 48.1 °F 29.84 in Calm     90% 0.00 in 0 W/m2
01:09 50.8 °F 48 °F 29.84 in Calm     90% 0.00 in 0 W/m2
01:14 50.8 °F 47.9 °F 29.84 in Calm     90% 0.00 in 0 W/m2
01:19 50.7 °F 47.8 °F 29.84 in Calm     90% 0.00 in 0 W/m2
01:24 50.6 °F 47.8 °F 29.84 in Calm     90% 0.00 in 0 W/m2
01:29 50.5 °F 47.7 °F 29.84 in Calm     90% 0.00 in 0 W/m2
01:34 50.4 °F 47.6 °F 29.84 in Calm     90% 0.00 in 0 W/m2
01:39 50.3 °F 47.5 °F 29.84 in Calm     90% 0.00 in 0 W/m2
01:44 50.2 °F 47.4 °F 29.84 in Calm     90% 0.00 in 0 W/m2
01:49 50.1 °F 47.3 °F 29.84 in Calm     90% 0.00 in 0 W/m2
01:54 50 °F 47.5 °F 29.84 in Calm     90.8% 0.00 in 0 W/m2
01:59 50 °F 47.5 °F 29.84 in Calm     91% 0.00 in 0 W/m2
02:04 49.9 °F 47.4 °F 29.84 in Calm     91% 0.00 in 0 W/m2
02:09 49.8 °F 47.3 °F 29.84 in Calm     91% 0.00 in 0 W/m2
02:14 49.7 °F 47.2 °F 29.84 in Calm     91% 0.00 in 0 W/m2
02:19 49.6 °F 47.1 °F 29.84 in Calm     91% 0.00 in 0 W/m2
02:24 49.5 °F 47 °F 29.83 in Calm     91% 0.00 in 0 W/m2
02:29 49.4 °F 46.9 °F 29.83 in Calm     91% 0.00 in 0 W/m2
02:34 49.4 °F 46.9 °F 29.83 in Calm     91% 0.00 in 0 W/m2
02:39 49.4 °F 47.2 °F 29.83 in Calm     91.9% 0.00 in 0 W/m2
02:44 49.5 °F 47.3 °F 29.83 in Calm     92% 0.00 in 0 W/m2
02:49 49.5 °F 47.3 °F 29.83 in Calm     92% 0.00 in 0 W/m2
02:54 49.5 °F 47.3 °F 29.83 in Calm     92% 0.00 in 0 W/m2
02:59 49.6 °F 47.4 °F 29.83 in Calm     92% 0.00 in 0 W/m2
03:04 49.6 °F 47.4 °F 29.82 in Calm     92% 0.00 in 0 W/m2
03:09 49.6 °F 47.4 °F 29.82 in Calm     92% 0.00 in 0 W/m2
03:14 49.6 °F 47.4 °F 29.82 in Calm     92% 0.00 in 0 W/m2
03:19 49.6 °F 47.4 °F 29.82 in Calm     92% 0.00 in 0 W/m2
03:24 49.7 °F 47.5 °F 29.82 in Calm     92.2% 0.00 in 0 W/m2
03:29 49.7 °F 47.8 °F 29.82 in Calm     93% 0.00 in 0 W/m2
03:34 49.8 °F 47.9 °F 29.81 in Calm     93% 0.00 in 0 W/m2
03:39 49.9 °F 48 °F 29.81 in Calm     93% 0.00 in 0 W/m2
03:44 49.9 °F 48 °F 29.81 in Calm     93% 0.00 in 0 W/m2
03:49 50 °F 48.1 °F 29.81 in Calm     93% 0.00 in 0 W/m2
03:54 50.1 °F 48.2 °F 29.81 in Calm     93% 0.00 in 0 W/m2
03:59 50.1 °F 48.2 °F 29.81 in Calm     93% 0.00 in 0 W/m2
04:04 50 °F 48.1 °F 29.80 in Calm     93% 0.00 in 0 W/m2
04:09 50 °F 48 °F 29.81 in Calm     93% 0.00 in 0 W/m2
04:14 49.9 °F 48 °F 29.80 in Calm     93% 0.00 in 0 W/m2
04:19 49.9 °F 48 °F 29.80 in Calm     93% 0.00 in 0 W/m2
04:24 50 °F 48 °F 29.80 in Calm     93% 0.00 in 0 W/m2
04:29 50 °F 48.1 °F 29.80 in Calm     93% 0.00 in 0 W/m2
04:34 50 °F 48 °F 29.80 in Calm     93% 0.00 in 0 W/m2
04:39 49.9 °F 48 °F 29.80 in Calm     93% 0.00 in 0 W/m2
04:44 49.8 °F 47.9 °F 29.80 in Calm     93% 0.00 in 0 W/m2
04:49 49.7 °F 47.8 °F 29.80 in Calm     93% 0.00 in 0 W/m2
04:54 49.6 °F 47.7 °F 29.81 in Calm     93% 0.00 in 0 W/m2
04:59 49.5 °F 47.6 °F 29.81 in Calm     93% 0.00 in 0 W/m2
05:04 49.4 °F 47.5 °F 29.81 in Calm     93% 0.00 in 0 W/m2
05:09 49.3 °F 47.4 °F 29.80 in Calm     93% 0.00 in 0 W/m2
05:14 49.2 °F 47.3 °F 29.80 in Calm     93% 0.00 in 0 W/m2
05:19 49.2 °F 47.3 °F 29.80 in Calm     93% 0.00 in 0 W/m2
05:24 49.2 °F 47.3 °F 29.80 in Calm     93% 0.00 in 0 W/m2
05:29 49.1 °F 47.2 °F 29.80 in Calm     93% 0.00 in 0 W/m2
05:34 49 °F 47.1 °F 29.80 in Calm     93% 0.00 in 0 W/m2
05:39 48.8 °F 46.9 °F 29.80 in Calm     93% 0.00 in 0 W/m2
05:44 48.7 °F 46.8 °F 29.80 in Calm     93% 0.00 in 0 W/m2
05:49 48.6 °F 46.7 °F 29.80 in Calm     93% 0.00 in 0 W/m2
05:54 48.5 °F 46.6 °F 29.80 in Calm     93% 0.00 in 0 W/m2
05:59 48.5 °F 46.6 °F 29.80 in Calm     93% 0.00 in 0 W/m2
06:04 48.6 °F 46.6 °F 29.80 in Calm     93% 0.00 in 0 W/m2
06:09 48.6 °F 46.7 °F 29.80 in Calm     93% 0.00 in 0 W/m2
06:14 48.6 °F 46.7 °F 29.80 in Calm     93% 0.00 in 0 W/m2
06:19 48.5 °F 46.6 °F 29.80 in Calm     93% 0.00 in 0 W/m2
06:24 48.5 °F 46.6 °F 29.80 in Calm     93.1% 0.00 in 0 W/m2
06:29 48.5 °F 46.9 °F 29.80 in Calm     94% 0.00 in 0 W/m2
06:34 48.6 °F 47 °F 29.79 in Calm     94% 0.00 in 0 W/m2
06:39 48.7 °F 47.1 °F 29.79 in Calm     94% 0.00 in 0 W/m2
06:44 49 °F 47.3 °F 29.79 in Calm     94% 0.00 in 0 W/m2
06:49 49.1 °F 47.5 °F 29.79 in Calm     94% 0.00 in 7 W/m2
06:54 49.3 °F 47.6 °F 29.79 in Calm     94% 0.00 in 11 W/m2
06:59 49.4 °F 47.8 °F 29.79 in Calm     94.2% 0.00 in 11 W/m2
07:04 49.5 °F 47.9 °F 29.79 in Calm     94% 0.00 in 11 W/m2
07:09 49.7 °F 48 °F 29.79 in Calm     94% 0.00 in 16 W/m2
07:14 49.8 °F 48.2 °F 29.79 in Calm     94% 0.00 in 19 W/m2
07:19 50 °F 48.6 °F 29.79 in Calm     94.9% 0.00 in 19 W/m2
07:24 50.2 °F 48.8 °F 29.78 in Calm     95% 0.00 in 23 W/m2
07:29 50.3 °F 48.8 °F 29.78 in Calm     94.5% 0.00 in 37 W/m2
07:34 50.4 °F 48.7 °F 29.78 in Calm     94% 0.00 in 47 W/m2
07:39 50.4 °F 48.7 °F 29.78 in Calm     94% 0.00 in 47 W/m2
07:44 50.4 °F 48.8 °F 29.78 in Calm     94% 0.00 in 47 W/m2
07:49 50.5 °F 48.8 °F 29.78 in Calm     94% 0.00 in 60 W/m2
07:54 50.6 °F 49 °F 29.78 in Calm     94% 0.00 in 67 W/m2
07:59 50.9 °F 49.2 °F 29.78 in Calm     94% 0.00 in 93 W/m2
08:00 51 °F 49.3 °F 29.77 in Calm     94% 0.00 in 93 W/m2
08:09 51.3 °F 49.7 °F 29.78 in Calm     94% 0.00 in 128 W/m2
08:14 51.7 °F 50 °F 29.78 in Calm     94.1% 0.00 in 135 W/m2
08:19 52.1 °F 50.8 °F 29.78 in Calm     95% 0.00 in 118 W/m2
08:24 52.6 °F 51.2 °F 29.77 in Calm     95% 0.00 in 88 W/m2
08:29 52.9 °F 51.3 °F 29.77 in Calm     94.2% 0.00 in 137 W/m2
08:34 53.2 °F 51.5 °F 29.77 in Calm     94% 0.00 in 130 W/m2
08:39 53.5 °F 51.8 °F 29.77 in Calm     94% 0.00 in 125 W/m2
08:44 53.8 °F 51.9 °F 29.77 in Calm     93.4% 0.00 in 148 W/m2
08:49 54.1 °F 52.1 °F 29.77 in Calm     93% 0.00 in 183 W/m2
08:54 54.5 °F 52.5 °F 29.77 in Calm     92.9% 0.00 in 211 W/m2
08:59 54.8 °F 52.5 °F 29.76 in Calm     92% 0.00 in 227 W/m2
09:04 55.2 °F 52.6 °F 29.76 in Calm     91.2% 0.00 in 329 W/m2
09:09 55.7 °F 53.1 °F 29.76 in Calm     90.9% 0.00 in 329 W/m2
09:14 56 °F 53 °F 29.76 in Calm     89.4% 0.00 in 156 W/m2
09:19 56.4 °F 53.2 °F 29.76 in Calm     89% 0.00 in 130 W/m2
09:24 56.8 °F 53.4 °F 29.76 in Calm     88.3% 0.00 in 130 W/m2
09:29 57 °F 53.2 °F 29.76 in Calm     87% 0.00 in 148 W/m2
09:34 57.2 °F 53.1 °F 29.76 in Calm     86.1% 0.00 in 199 W/m2
09:39 57.5 °F 53.1 °F 29.76 in Calm     85.3% 0.00 in 223 W/m2
09:44 57.8 °F 53.3 °F 29.76 in Calm     85% 0.00 in 251 W/m2
09:49 58.2 °F 53.8 °F 29.76 in Calm     85% 0.00 in 274 W/m2
09:54 58.7 °F 54.2 °F 29.76 in Calm     84.8% 0.00 in 452 W/m2
09:59 59.4 °F 54.9 °F 29.76 in Calm     85% 0.00 in 624 W/m2
10:04 60.2 °F 54.9 °F 29.76 in Calm     82.7% 0.00 in 367 W/m2
10:09 60.9 °F 55 °F 29.75 in Calm     81.1% 0.00 in 396 W/m2
10:14 61.4 °F 54.8 °F 29.75 in Calm     78.9% 0.00 in 304 W/m2
10:19 61.9 °F 55.4 °F 29.75 in Calm     79% 0.00 in 353 W/m2
10:24 62.5 °F 55.6 °F 29.75 in Calm     78.1% 0.00 in 253 W/m2
10:29 63 °F 55.7 °F 29.75 in Calm     76.9% 0.00 in 287 W/m2
10:34 63.4 °F 55.8 °F 29.75 in Calm     76.3% 0.00 in 360 W/m2
10:39 63.9 °F 56.3 °F 29.75 in Calm     76.1% 0.00 in 670 W/m2
10:44 64.7 °F 56.7 °F 29.75 in Calm     75.4% 0.00 in 378 W/m2
10:49 65.1 °F 56.8 °F 29.75 in Calm     74.4% 0.00 in 269 W/m2
10:54 65.2 °F 56.3 °F 29.74 in Calm     73% 0.00 in 357 W/m2
10:59 65.1 °F 56 °F 29.74 in Calm     72.4% 0.00 in 355 W/m2
11:04 65 °F 55.9 °F 29.73 in Calm     72.4% 0.00 in 357 W/m2
11:09 64.9 °F 56.1 °F 29.73 in Calm     73.2% 0.00 in 339 W/m2
11:14 65.1 °F 56.4 °F 29.73 in Calm     73.6% 0.00 in 443 W/m2
11:19 65.3 °F 56.7 °F 29.73 in Calm     73.7% 0.00 in 357 W/m2
11:24 65.6 °F 57.2 °F 29.72 in Calm     74.3% 0.00 in 362 W/m2
11:29 66 °F 57.7 °F 29.72 in Calm     74.7% 0.00 in 378 W/m2
11:34 66.3 °F 57.5 °F 29.72 in Calm     73.4% 0.00 in 339 W/m2
11:39 66.4 °F 57 °F 29.72 in Calm     71.8% 0.00 in 338 W/m2
11:44 66.4 °F 56.7 °F 29.72 in Calm     71% 0.00 in 302 W/m2
11:49 66.5 °F 57.2 °F 29.72 in Calm     72% 0.00 in 287 W/m2
11:54 66.5 °F 57 °F 29.71 in WSW 0.4 mph 3 mph 71.5% 0.00 in 253 W/m2
11:59 66.4 °F 57.1 °F 29.71 in WSW 0.3 mph 3 mph 72% 0.00 in 253 W/m2
12:00 66.4 °F 57.1 °F 29.71 in Calm   3 mph 72% 0.00 in 251 W/m2
12:09 66.3 °F 57.1 °F 29.71 in WSW 0.6 mph 4 mph 72.1% 0.00 in 272 W/m2
12:14 66.4 °F 57 °F 29.71 in SSW 0.3 mph 4 mph 71.8% 0.00 in 274 W/m2
12:19 66.5 °F 57.1 °F 29.71 in WSW 0.2 mph 4 mph 71.9% 0.00 in 272 W/m2
12:24 66.5 °F 57.3 °F 29.71 in West 0.1 mph 4 mph 72% 0.00 in 306 W/m2
12:29 66.7 °F 57.5 °F 29.71 in SW 0.4 mph 4 mph 72.3% 0.00 in 323 W/m2
12:34 66.9 °F 57.3 °F 29.70 in Calm   4 mph 71.3% 0.00 in 285 W/m2
12:39 67.1 °F 57.7 °F 29.70 in Calm   1 mph 71.7% 0.00 in 253 W/m2
12:44 67.3 °F 57.6 °F 29.70 in Calm   1 mph 71% 0.00 in 243 W/m2
12:49 67.4 °F 57.7 °F 29.69 in Calm   1 mph 71% 0.00 in 229 W/m2
12:54 67.6 °F 57.8 °F 29.69 in SSW 0.2 mph 3 mph 71% 0.00 in 232 W/m2
12:59 67.7 °F 58.3 °F 29.69 in West 0.4 mph 5 mph 71.8% 0.00 in 230 W/m2
13:04 67.8 °F 58.4 °F 29.68 in SW 0.1 mph 5 mph 71.9% 0.00 in 229 W/m2
13:09 67.9 °F 58.2 °F 29.68 in SW 0.1 mph 2 mph 71% 0.00 in 216 W/m2
13:14 68 °F 58.3 °F 29.68 in SW 0.1 mph 2 mph 71% 0.00 in 234 W/m2
13:19 68 °F 58.7 °F 29.67 in Calm   2 mph 71.9% 0.00 in 287 W/m2
13:24 68.1 °F 58.9 °F 29.67 in South 0.4 mph 2 mph 72.2% 0.00 in 288 W/m2
13:29 68.3 °F 59 °F 29.67 in SSW 0.2 mph 4 mph 72% 0.00 in 248 W/m2
13:34 68.5 °F 59.1 °F 29.66 in SSW 0.4 mph 4 mph 72% 0.00 in 251 W/m2
13:39 68.6 °F 59.3 °F 29.66 in SSW 0.7 mph 3 mph 72% 0.00 in 267 W/m2
13:44 68.7 °F 59.4 °F 29.66 in SSW 0.2 mph 4 mph 72% 0.00 in 267 W/m2
13:49 68.8 °F 59.4 °F 29.66 in SSW 0.4 mph 4 mph 72% 0.00 in 227 W/m2
13:54 68.8 °F 59.4 °F 29.65 in SSW 0.4 mph 4 mph 72% 0.00 in 214 W/m2
13:59 68.8 °F 59.7 °F 29.65 in Calm   4 mph 72.8% 0.00 in 174 W/m2
14:04 68.8 °F 60.1 °F 29.65 in SSW 0.1 mph 4 mph 73.8% 0.00 in 151 W/m2
14:09 68.8 °F 59.8 °F 29.65 in Calm   2 mph 73% 0.00 in 165 W/m2
14:14 68.7 °F 60 °F 29.65 in Calm   2 mph 73.7% 0.00 in 162 W/m2
14:19 68.7 °F 60.3 °F 29.65 in SSW 0.1 mph 2 mph 74.4% 0.00 in 128 W/m2
14:24 68.8 °F 60.5 °F 29.64 in SSW 0.1 mph 2 mph 75% 0.00 in 165 W/m2
14:29 68.8 °F 60.9 °F 29.64 in SSW 0.3 mph 2 mph 75.9% 0.00 in 163 W/m2
14:34 68.9 °F 61.1 °F 29.64 in SSW 0.3 mph 3 mph 76.3% 0.00 in 153 W/m2
14:39 69 °F 61.6 °F 29.64 in Calm   3 mph 77.2% 0.00 in 213 W/m2
14:44 69.2 °F 62 °F 29.63 in SW 0.1 mph 3 mph 78% 0.00 in 213 W/m2
14:49 69.3 °F 62.1 °F 29.63 in SW 0.2 mph 3 mph 77.9% 0.00 in 192 W/m2
14:54 69.3 °F 62 °F 29.63 in SSW 0.1 mph 3 mph 77.5% 0.00 in 185 W/m2
14:59 69.4 °F 62.1 °F 29.63 in South 0.4 mph 3 mph 77.6% 0.00 in 211 W/m2
15:04 69.4 °F 61.9 °F 29.62 in SSE 0.5 mph 4 mph 77% 0.00 in 292 W/m2
15:09 69.6 °F 62.1 °F 29.62 in South 0.2 mph 4 mph 77% 0.00 in 276 W/m2
15:14 69.9 °F 62.1 °F 29.61 in South 0.1 mph 4 mph 76.3% 0.00 in 178 W/m2
15:19 70 °F 62.1 °F 29.61 in South 0.2 mph 4 mph 76% 0.00 in 190 W/m2
15:24 70.1 °F 62.2 °F 29.61 in Calm   4 mph 76% 0.00 in 216 W/m2
15:29 70.1 °F 62.2 °F 29.61 in South 0.1 mph 4 mph 76% 0.00 in 265 W/m2
15:34 70.2 °F 62.3 °F 29.61 in Calm   4 mph 76% 0.00 in 148 W/m2
15:39 70.2 °F 62.1 °F 29.61 in SSE 0.2 mph 3 mph 75.6% 0.00 in 135 W/m2
15:44 70.2 °F 61.9 °F 29.60 in SSE 0.3 mph 3 mph 75% 0.00 in 193 W/m2
15:49 70.2 °F 61.9 °F 29.60 in SSE 0.1 mph 3 mph 75% 0.00 in 200 W/m2
15:54 70.2 °F 61.7 °F 29.61 in South 0.4 mph 4 mph 74.4% 0.00 in 123 W/m2
15:59 70.2 °F 61.2 °F 29.61 in South 0.5 mph 4 mph 73% 0.00 in 223 W/m2
16:09 70.3 °F 60.8 °F 29.60 in SSW 0.9 mph 5 mph 72% 0.00 in 139 W/m2
16:14 70.3 °F 60.9 °F 29.59 in South 0.7 mph 5 mph 72% 0.00 in 183 W/m2
16:19 70.4 °F 61.2 °F 29.59 in South 0.1 mph 5 mph 72.4% 0.00 in 134 W/m2
16:24 70.5 °F 61.4 °F 29.59 in South 0.6 mph 5 mph 73% 0.00 in 125 W/m2
16:29 70.5 °F 61.4 °F 29.59 in South 0.2 mph 5 mph 73% 0.00 in 137 W/m2
16:34 70.4 °F 61.4 °F 29.59 in South 0.2 mph 5 mph 73% 0.00 in 128 W/m2
16:39 70.4 °F 61.6 °F 29.58 in SSW 0.5 mph 4 mph 73.6% 0.00 in 128 W/m2
16:44 70.4 °F 61.7 °F 29.58 in SSW 1.5 mph 6 mph 74% 0.00 in 111 W/m2
16:49 70.3 °F 61.6 °F 29.58 in South 0.6 mph 6 mph 74% 0.00 in 83 W/m2
16:54 70.2 °F 61.8 °F 29.59 in SSW 0.5 mph 11 mph 74.7% 0.00 in 81 W/m2
16:58 70.1 °F 61.8 °F 29.59 in Calm   11 mph 75% 0.00 in 90 W/m2
Hartford County Weather
Compliments of Weather Underground - 2 mb